Startpagina
METAR-TAF:

METAR-TAF

Vliegvelden :

Aeroporto di Roma Fiumicino

Rome-Fiumicino, Italië

breedte: 41-48N, lengte: 012-14E, hoogte: 2 m

Actueel weer

Dit bericht is 12 minuten geleden gemaakt, om 23:20 UTC
Wind 5 kt uit het noordnoordwesten
Temperatuur 18°C
Vochtigheid 94%
Druk 1018 hPa
Zicht 10 km of meer
geen wolken onder 1500 m en geen cumulonimbus

METAR: LIRF 262320Z 33005KT CAVOK 18/17 Q1018 NOSIG

Tijdstip: 01:32 (23:32 UTC)

Verwachting

Dit bericht is 6 uur en het 32 minuten geleden gemaakt, om 17:00 UTC
Verwachting geldig van 26 om 18 UTC tot 27 om 24 UTC
Wind 4 kt uit variabele richting
Zicht 10 km of meer
geen wolken onder 1500 m en geen cumulonimbus
Tijdelijke
van 27 om 01 UTC tot 27 om 05 UTC
Zicht: 2000 m
mistbanken
Wijzigt naar
van 27 om 08 UTC tot 27 om 10 UTC
Wind 12 kt uit het zuidwesten
Wijzigt naar
van 27 om 16 UTC tot 27 om 18 UTC
Wind 4 kt uit variabele richting

TAF: LIRF 261700Z 2618/2724 VRB04KT CAVOK TEMPO 2701/2705 2000 BCFG BECMG 2708/2710 23012KT BECMG 2716/2718 VRB04KT

Waarnemingen en weersverwachtingen van meer dan 4000 vliegvelden (METAR en TAF).

De beschikbare stations zijn de gele en rode punten op de kaart.

Ga met uw muis naar het station om de naam te zien.

Klik dan om waarnemingen en weersverwachtingen te zien.

kaart wijzigen: klik op de groene knoppen met een zwart kruis om in te zoomen, op de groene knop met een streepje om uit te zoomen of op de groene pijlen voor aangrenzende kaarten.


METAR-TAF: